createdAt,value
2018-02-09T00:00:14.993Z,52.61
2018-02-09T00:00:46.614Z,52.44
2018-02-09T00:01:18.237Z,52.34
2018-02-09T00:01:49.862Z,52.55
2018-02-09T00:02:21.514Z,52.56
2018-02-09T00:02:53.141Z,52.58
2018-02-09T00:03:24.814Z,52.53
2018-02-09T00:03:56.446Z,52.77
2018-02-09T00:04:28.070Z,52.59
2018-02-09T00:04:59.698Z,52.73
2018-02-09T00:05:31.322Z,52.67
2018-02-09T00:06:02.992Z,52.69
2018-02-09T00:06:34.609Z,52.77
2018-02-09T00:07:06.234Z,52.80
2018-02-09T00:07:37.904Z,52.92
2018-02-09T00:08:09.553Z,52.66
2018-02-09T00:08:41.173Z,52.90
2018-02-09T00:09:12.799Z,53.02
2018-02-09T00:09:44.421Z,53.21
2018-02-09T00:10:16.050Z,53.20
2018-02-09T00:10:47.718Z,53.03
2018-02-09T00:11:19.340Z,53.21
2018-02-09T00:11:50.962Z,53.21
2018-02-09T00:12:22.581Z,53.13
2018-02-09T00:12:54.206Z,53.34
2018-02-09T00:13:25.869Z,53.10
2018-02-09T00:13:57.489Z,53.29
2018-02-09T00:14:29.108Z,53.37
2018-02-09T00:15:00.730Z,53.43
2018-02-09T00:15:32.358Z,53.47
2018-02-09T00:16:03.986Z,53.46
2018-02-09T00:16:35.650Z,53.41
2018-02-09T00:17:07.321Z,53.35
2018-02-09T00:17:38.945Z,53.33
2018-02-09T00:18:10.565Z,53.73
2018-02-09T00:18:42.185Z,53.98
2018-02-09T00:19:13.809Z,53.82
2018-02-09T00:19:45.429Z,54.39
2018-02-09T00:20:17.067Z,54.35
2018-02-09T00:20:48.698Z,54.21
2018-02-09T00:21:20.329Z,54.20
2018-02-09T00:21:51.954Z,54.07
2018-02-09T00:22:23.625Z,54.42
2018-02-09T00:22:55.245Z,54.34
2018-02-09T00:23:26.874Z,54.28
2018-02-09T00:23:58.493Z,54.17
2018-02-09T00:24:30.113Z,54.15
2018-02-09T00:25:01.742Z,54.06
2018-02-09T00:25:33.361Z,54.42
2018-02-09T00:26:04.981Z,54.41
2018-02-09T00:26:36.605Z,54.64
2018-02-09T00:27:08.239Z,54.35
2018-02-09T00:27:39.913Z,54.55
2018-02-09T00:28:11.538Z,54.44
2018-02-09T00:28:43.162Z,54.63
2018-02-09T00:29:14.785Z,54.69
2018-02-09T00:29:46.405Z,54.63
2018-02-09T00:30:18.030Z,54.69
2018-02-09T00:30:49.658Z,54.92
2018-02-09T00:31:21.281Z,54.90
2018-02-09T00:31:52.909Z,54.93
2018-02-09T00:32:24.576Z,55.06
2018-02-09T00:32:56.248Z,55.13
2018-02-09T00:33:27.873Z,55.26
2018-02-09T00:33:59.498Z,55.37
2018-02-09T00:34:31.122Z,55.33
2018-02-09T00:35:02.750Z,55.32
2018-02-09T00:35:34.369Z,55.68
2018-02-09T00:36:05.989Z,55.53
2018-02-09T00:36:37.606Z,55.36
2018-02-09T00:37:09.234Z,55.85
2018-02-09T00:37:40.910Z,55.29
2018-02-09T00:38:12.539Z,55.52
2018-02-09T00:38:44.169Z,55.54
2018-02-09T00:39:15.793Z,55.35
2018-02-09T00:39:47.413Z,55.37
2018-02-09T00:40:19.032Z,55.54
2018-02-09T00:40:50.652Z,55.51
2018-02-09T00:41:22.278Z,55.78
2018-02-09T00:41:53.901Z,55.58
2018-02-09T00:42:25.526Z,55.55
2018-02-09T00:42:57.198Z,55.69
2018-02-09T00:43:28.821Z,55.71
2018-02-09T00:44:00.441Z,56.08
2018-02-09T00:44:32.066Z,55.83
2018-02-09T00:45:04.655Z,56.05
2018-02-09T00:45:36.277Z,56.15
2018-02-09T00:46:07.897Z,56.39
2018-02-09T00:46:39.517Z,56.29
2018-02-09T00:47:11.141Z,56.02
2018-02-09T00:47:42.774Z,56.43
2018-02-09T00:48:14.394Z,56.25
2018-02-09T00:48:46.017Z,56.75
2018-02-09T00:49:17.646Z,57.17
2018-02-09T00:49:49.309Z,56.45
2018-02-09T00:50:20.982Z,56.21
2018-02-09T00:50:52.605Z,56.16
2018-02-09T00:51:24.227Z,55.97
2018-02-09T00:51:55.855Z,56.12
2018-02-09T00:52:27.477Z,55.67
2018-02-09T00:52:59.098Z,55.44
2018-02-09T00:53:30.718Z,55.61
2018-02-09T00:54:02.346Z,55.79
2018-02-09T00:54:33.969Z,55.95
2018-02-09T00:55:05.590Z,55.70
2018-02-09T00:55:37.272Z,55.93
2018-02-09T00:56:08.901Z,55.65
2018-02-09T00:56:40.531Z,55.80
2018-02-09T00:57:12.153Z,56.06
2018-02-09T00:57:43.778Z,55.87
2018-02-09T00:58:15.401Z,55.80
2018-02-09T00:58:47.030Z,55.99
2018-02-09T00:59:18.658Z,55.73
2018-02-09T00:59:50.281Z,55.81
2018-02-09T01:00:21.902Z,55.72
2018-02-09T01:00:53.569Z,55.66
2018-02-09T01:01:25.198Z,55.66
2018-02-09T01:01:56.873Z,55.42
2018-02-09T01:02:28.493Z,55.34
2018-02-09T01:03:00.120Z,55.34
2018-02-09T01:03:31.746Z,55.62
2018-02-09T01:04:03.366Z,55.46
2018-02-09T01:04:34.989Z,55.45
2018-02-09T01:05:06.609Z,55.45
2018-02-09T01:05:38.238Z,55.46
2018-02-09T01:06:09.866Z,55.48
2018-02-09T01:06:41.494Z,55.62
2018-02-09T01:07:13.166Z,55.52
2018-02-09T01:07:44.786Z,55.49
2018-02-09T01:08:16.405Z,55.47
2018-02-09T01:08:48.025Z,55.50
2018-02-09T01:09:19.646Z,55.61
2018-02-09T01:09:51.266Z,55.73
2018-02-09T01:10:22.885Z,55.98
2018-02-09T01:10:54.509Z,56.12
2018-02-09T01:11:26.130Z,55.72
2018-02-09T01:11:57.754Z,55.68
2018-02-09T01:12:29.422Z,55.93
2018-02-09T01:13:01.045Z,56.22
2018-02-09T01:13:32.665Z,56.43
2018-02-09T01:14:04.333Z,56.41
2018-02-09T01:14:35.959Z,56.36
2018-02-09T01:15:07.586Z,56.68
2018-02-09T01:15:39.213Z,56.37
2018-02-09T01:16:10.833Z,56.26
2018-02-09T01:16:42.461Z,56.26
2018-02-09T01:17:14.086Z,56.38
2018-02-09T01:17:45.709Z,56.07
2018-02-09T01:18:17.334Z,56.02
2018-02-09T01:18:49.010Z,56.11
2018-02-09T01:19:20.633Z,55.99
2018-02-09T01:19:52.253Z,56.12
2018-02-09T01:20:23.877Z,56.00
2018-02-09T01:20:55.497Z,55.88
2018-02-09T01:21:27.122Z,55.87
2018-02-09T01:21:58.746Z,55.75
2018-02-09T01:22:30.369Z,55.72
2018-02-09T01:23:01.989Z,55.72
2018-02-09T01:23:33.609Z,56.00
2018-02-09T01:24:05.392Z,55.86
2018-02-09T01:24:37.018Z,55.83
2018-02-09T01:25:08.646Z,55.80
2018-02-09T01:25:40.270Z,55.69
2018-02-09T01:26:11.901Z,55.63
2018-02-09T01:26:43.525Z,55.63
2018-02-09T01:27:15.178Z,55.57
2018-02-09T01:27:46.805Z,55.43
2018-02-09T01:28:18.430Z,55.81
2018-02-09T01:28:50.053Z,55.57
2018-02-09T01:29:21.738Z,55.62
2018-02-09T01:29:53.362Z,55.38
2018-02-09T01:30:24.981Z,55.25
2018-02-09T01:30:56.606Z,55.32
2018-02-09T01:31:28.225Z,55.46
2018-02-09T01:31:59.850Z,55.38
2018-02-09T01:32:31.482Z,55.42
2018-02-09T01:33:03.105Z,55.37
2018-02-09T01:33:34.725Z,55.22
2018-02-09T01:34:06.345Z,55.28
2018-02-09T01:34:38.022Z,55.26
2018-02-09T01:35:09.645Z,55.08
2018-02-09T01:35:41.278Z,55.13
2018-02-09T01:36:12.902Z,55.23
2018-02-09T01:36:44.529Z,55.15
2018-02-09T01:37:16.149Z,55.14
2018-02-09T01:37:47.769Z,55.25
2018-02-09T01:38:19.389Z,55.10
2018-02-09T01:38:51.014Z,55.36
2018-02-09T01:39:22.637Z,55.58
2018-02-09T01:39:54.266Z,55.64
2018-02-09T01:40:25.885Z,55.73
2018-02-09T01:40:57.505Z,55.61
2018-02-09T01:41:29.125Z,55.56
2018-02-09T01:42:00.767Z,55.82
2018-02-09T01:42:32.389Z,55.92
2018-02-09T01:43:04.021Z,56.02
2018-02-09T01:43:35.641Z,56.02
2018-02-09T01:44:07.269Z,56.18
2018-02-09T01:44:38.889Z,56.39
2018-02-09T01:45:10.565Z,56.55
2018-02-09T01:45:42.193Z,56.40
2018-02-09T01:46:13.818Z,56.74
2018-02-09T01:46:45.445Z,56.80
2018-02-09T01:47:17.073Z,56.77
2018-02-09T01:47:48.693Z,56.78
2018-02-09T01:48:20.322Z,56.91
2018-02-09T01:48:51.941Z,56.85
2018-02-09T01:49:23.561Z,57.18
2018-02-09T01:49:55.185Z,57.16
2018-02-09T01:50:26.849Z,57.18
2018-02-09T01:50:58.522Z,57.31
2018-02-09T01:51:30.142Z,57.61
2018-02-09T01:52:01.762Z,57.33
2018-02-09T01:52:33.385Z,57.56
2018-02-09T01:53:05.005Z,57.46
2018-02-09T01:53:36.625Z,57.51
2018-02-09T01:54:08.246Z,57.50
2018-02-09T01:54:39.873Z,57.90
2018-02-09T01:55:11.493Z,57.88
2018-02-09T01:55:43.122Z,58.08
2018-02-09T01:56:14.789Z,57.92
2018-02-09T01:56:46.417Z,58.05
2018-02-09T01:57:18.037Z,58.12
2018-02-09T01:57:49.661Z,58.16
2018-02-09T01:58:21.290Z,58.34
2018-02-09T01:58:52.909Z,58.33
2018-02-09T01:59:24.529Z,58.61
2018-02-09T01:59:56.158Z,58.34
2018-02-09T02:00:27.845Z,58.83
2018-02-09T02:00:59.469Z,58.53
2018-02-09T02:01:31.094Z,58.88
2018-02-09T02:02:02.717Z,58.90
2018-02-09T02:02:34.402Z,59.35
2018-02-09T02:03:06.027Z,58.85
2018-02-09T02:03:37.649Z,58.55
2018-02-09T02:04:09.275Z,59.00
2018-02-09T02:04:40.897Z,59.28
2018-02-09T02:05:12.518Z,59.28
2018-02-09T02:05:44.137Z,59.03
2018-02-09T02:06:15.761Z,59.24
2018-02-09T02:06:47.386Z,59.24
2018-02-09T02:07:19.016Z,59.28
2018-02-09T02:07:50.677Z,59.27
2018-02-09T02:08:22.297Z,59.11
2018-02-09T02:08:53.918Z,58.86
2018-02-09T02:09:25.541Z,58.97
2018-02-09T02:09:57.161Z,59.37
2018-02-09T02:10:28.830Z,59.16
2018-02-09T02:11:00.449Z,59.03
2018-02-09T02:11:32.074Z,59.58
2018-02-09T02:12:03.701Z,59.59
2018-02-09T02:12:35.358Z,59.24
2018-02-09T02:13:06.977Z,59.88
2018-02-09T02:13:38.597Z,59.41
2018-02-09T02:14:10.218Z,59.19
2018-02-09T02:14:41.841Z,59.60
2018-02-09T02:15:13.466Z,59.38
2018-02-09T02:15:45.138Z,59.23
2018-02-09T02:16:16.757Z,59.29
2018-02-09T02:16:48.382Z,59.88
2018-02-09T02:17:20.009Z,59.17
2018-02-09T02:17:51.638Z,59.76
2018-02-09T02:18:23.257Z,59.69
2018-02-09T02:18:54.887Z,59.18
2018-02-09T02:19:26.513Z,59.58
2018-02-09T02:19:58.178Z,59.72
2018-02-09T02:20:29.805Z,59.68
2018-02-09T02:21:01.426Z,59.70
2018-02-09T02:21:33.045Z,59.51
2018-02-09T02:22:04.674Z,60.11
2018-02-09T02:22:36.337Z,59.69
2018-02-09T02:23:08.001Z,59.79
2018-02-09T02:23:39.670Z,59.76
2018-02-09T02:24:11.298Z,59.67
2018-02-09T02:24:42.917Z,59.60
2018-02-09T02:25:14.541Z,59.31
2018-02-09T02:25:46.166Z,59.88
2018-02-09T02:26:17.788Z,59.57
2018-02-09T02:26:49.410Z,59.95
2018-02-09T02:27:21.042Z,59.70
2018-02-09T02:27:52.713Z,59.33
2018-02-09T02:28:24.333Z,59.52
2018-02-09T02:28:55.957Z,59.58
2018-02-09T02:29:27.594Z,59.63
2018-02-09T02:29:59.217Z,59.68
2018-02-09T02:30:30.837Z,59.42
2018-02-09T02:31:02.533Z,59.60
2018-02-09T02:31:34.121Z,59.67
2018-02-09T02:32:05.785Z,59.96
2018-02-09T02:32:37.406Z,59.86
2018-02-09T02:33:09.029Z,59.42
2018-02-09T02:33:40.659Z,59.82
2018-02-09T02:34:12.286Z,59.56
2018-02-09T02:34:43.905Z,59.90
2018-02-09T02:35:15.570Z,59.70
2018-02-09T02:35:47.195Z,59.89
2018-02-09T02:36:18.817Z,59.84
2018-02-09T02:36:50.437Z,59.80
2018-02-09T02:37:22.101Z,59.93
2018-02-09T02:37:53.725Z,59.67
2018-02-09T02:38:25.346Z,59.56
2018-02-09T02:38:56.974Z,59.56
2018-02-09T02:39:28.598Z,59.64
2018-02-09T02:40:00.222Z,59.68
2018-02-09T02:40:31.846Z,60.12
2018-02-09T02:41:03.478Z,59.97
2018-02-09T02:41:35.102Z,60.03
2018-02-09T02:42:06.793Z,59.99
2018-02-09T02:42:38.420Z,60.24
2018-02-09T02:43:10.047Z,60.57
2018-02-09T02:43:41.670Z,60.46
2018-02-09T02:44:13.289Z,60.46
2018-02-09T02:44:44.910Z,60.80
2018-02-09T02:45:16.601Z,60.47
2018-02-09T02:45:48.227Z,60.70
2018-02-09T02:46:19.902Z,60.37
2018-02-09T02:46:51.525Z,60.55
2018-02-09T02:47:23.150Z,60.59
2018-02-09T02:47:54.774Z,60.67
2018-02-09T02:48:26.402Z,60.37
2018-02-09T02:48:58.034Z,60.29
2018-02-09T02:49:29.670Z,60.22
2018-02-09T02:50:01.298Z,60.30
2018-02-09T02:50:33.018Z,60.51
2018-02-09T02:51:04.646Z,60.31
2018-02-09T02:51:36.322Z,60.04
2018-02-09T02:52:07.946Z,59.98
2018-02-09T02:52:39.574Z,60.59
2018-02-09T02:53:11.202Z,60.14
2018-02-09T02:53:42.826Z,60.07
2018-02-09T02:54:14.446Z,60.11
2018-02-09T02:54:46.065Z,59.83
2018-02-09T02:55:17.687Z,59.61
2018-02-09T02:55:49.327Z,59.47
2018-02-09T02:56:20.960Z,59.81
2018-02-09T02:56:52.630Z,59.64
2018-02-09T02:57:24.289Z,59.70
2018-02-09T02:57:55.910Z,59.52
2018-02-09T02:58:27.538Z,59.53
2018-02-09T02:58:59.214Z,59.50
2018-02-09T02:59:30.837Z,59.43
2018-02-09T03:00:02.462Z,59.28
2018-02-09T03:00:34.090Z,59.50
2018-02-09T03:01:05.717Z,59.32
2018-02-09T03:01:37.338Z,59.24
2018-02-09T03:02:08.960Z,59.61
2018-02-09T03:02:40.586Z,59.51
2018-02-09T03:03:12.210Z,59.56
2018-02-09T03:03:43.842Z,59.69
2018-02-09T03:04:15.506Z,59.56
2018-02-09T03:04:47.184Z,59.57
2018-02-09T03:05:18.810Z,59.46
2018-02-09T03:05:50.430Z,59.48
2018-02-09T03:06:22.055Z,59.42
2018-02-09T03:06:53.683Z,59.41
2018-02-09T03:07:25.309Z,59.34
2018-02-09T03:07:56.934Z,59.25
2018-02-09T03:08:28.562Z,59.19
2018-02-09T03:09:00.186Z,59.14
2018-02-09T03:09:31.810Z,59.06
2018-02-09T03:10:03.478Z,59.09
2018-02-09T03:10:35.110Z,58.98
2018-02-09T03:11:06.730Z,58.91
2018-02-09T03:11:38.349Z,59.03
2018-02-09T03:12:09.973Z,58.92
2018-02-09T03:12:41.593Z,58.87
2018-02-09T03:13:13.218Z,58.95
2018-02-09T03:13:44.837Z,58.96
2018-02-09T03:14:16.465Z,58.79
2018-02-09T03:14:48.137Z,58.92
2018-02-09T03:15:19.761Z,58.77
2018-02-09T03:15:51.385Z,58.70
2018-02-09T03:16:23.018Z,58.56
2018-02-09T03:16:54.646Z,58.55
2018-02-09T03:17:26.274Z,58.58
2018-02-09T03:17:57.901Z,58.55
2018-02-09T03:18:29.526Z,58.37
2018-02-09T03:19:01.155Z,58.39
2018-02-09T03:19:32.777Z,58.59
2018-02-09T03:20:04.446Z,58.67
2018-02-09T03:20:36.073Z,58.58
2018-02-09T03:21:07.702Z,58.47
2018-02-09T03:21:39.382Z,58.43
2018-02-09T03:22:11.002Z,58.35
2018-02-09T03:22:42.626Z,58.26
2018-02-09T03:23:14.254Z,58.30
2018-02-09T03:23:45.873Z,58.30
2018-02-09T03:24:17.493Z,58.74
2018-02-09T03:24:49.117Z,58.79
2018-02-09T03:25:20.738Z,58.75
2018-02-09T03:25:52.358Z,58.64
2018-02-09T03:26:23.981Z,58.84
2018-02-09T03:26:55.646Z,58.62
2018-02-09T03:27:27.278Z,58.65
2018-02-09T03:27:58.897Z,59.09
2018-02-09T03:28:30.517Z,59.16
2018-02-09T03:29:02.137Z,59.21
2018-02-09T03:29:33.759Z,59.09
2018-02-09T03:30:05.386Z,58.92
2018-02-09T03:30:37.009Z,58.87
2018-02-09T03:31:08.629Z,58.71
2018-02-09T03:31:40.254Z,58.55
2018-02-09T03:32:11.874Z,58.77
2018-02-09T03:32:43.550Z,58.87
2018-02-09T03:33:15.181Z,58.87
2018-02-09T03:33:46.802Z,58.80
2018-02-09T03:34:18.425Z,58.83
2018-02-09T03:34:50.054Z,58.57
2018-02-09T03:35:21.677Z,59.14
2018-02-09T03:35:53.302Z,59.28
2018-02-09T03:36:24.929Z,59.23
2018-02-09T03:36:56.549Z,58.84
2018-02-09T03:37:28.169Z,59.02
2018-02-09T03:37:59.797Z,59.41
2018-02-09T03:38:31.422Z,59.54
2018-02-09T03:39:03.050Z,59.83
2018-02-09T03:39:34.674Z,60.04
2018-02-09T03:40:06.302Z,59.91
2018-02-09T03:40:37.926Z,59.94
2018-02-09T03:41:09.554Z,60.17
2018-02-09T03:41:41.174Z,60.53
2018-02-09T03:42:12.801Z,60.60
2018-02-09T03:42:44.430Z,60.19
2018-02-09T03:43:16.094Z,60.42
2018-02-09T03:43:47.717Z,60.13
2018-02-09T03:44:19.338Z,60.12
2018-02-09T03:44:50.962Z,59.94
2018-02-09T03:45:22.629Z,60.32
2018-02-09T03:45:54.261Z,60.83
2018-02-09T03:46:25.881Z,60.38
2018-02-09T03:46:57.501Z,60.54
2018-02-09T03:47:29.126Z,60.47
2018-02-09T03:48:00.794Z,60.29
2018-02-09T03:48:32.418Z,60.05
2018-02-09T03:49:04.038Z,60.38
2018-02-09T03:49:35.666Z,60.23
2018-02-09T03:50:07.290Z,60.43
2018-02-09T03:50:38.909Z,60.43
2018-02-09T03:51:10.581Z,60.66
2018-02-09T03:51:42.201Z,60.50
2018-02-09T03:52:13.830Z,60.26
2018-02-09T03:52:45.457Z,60.54
2018-02-09T03:53:17.077Z,60.37
2018-02-09T03:53:48.697Z,60.30
2018-02-09T03:54:20.317Z,60.82
2018-02-09T03:54:51.937Z,60.63
2018-02-09T03:55:23.558Z,60.65
2018-02-09T03:55:55.182Z,60.42
2018-02-09T03:56:26.861Z,60.26
2018-02-09T03:56:58.482Z,60.14
2018-02-09T03:57:30.101Z,60.24
2018-02-09T03:58:01.722Z,60.15
2018-02-09T03:58:33.350Z,60.11
2018-02-09T03:59:04.978Z,60.16
2018-02-09T03:59:36.597Z,59.96
2018-02-09T04:00:08.222Z,60.09
2018-02-09T04:00:39.850Z,60.04
2018-02-09T04:01:11.469Z,59.94
2018-02-09T04:01:43.133Z,60.02
2018-02-09T04:02:14.798Z,59.99
2018-02-09T04:02:46.417Z,59.85
2018-02-09T04:03:18.038Z,59.87
2018-02-09T04:03:49.657Z,59.74
2018-02-09T04:04:21.278Z,60.01
2018-02-09T04:04:52.902Z,59.82
2018-02-09T04:05:24.561Z,59.95
2018-02-09T04:05:56.189Z,59.78
2018-02-09T04:06:27.846Z,59.77
2018-02-09T04:06:59.465Z,59.97
2018-02-09T04:07:31.089Z,60.00
2018-02-09T04:08:02.710Z,59.95
2018-02-09T04:08:34.386Z,60.07
2018-02-09T04:09:06.019Z,59.93
2018-02-09T04:09:37.645Z,59.90
2018-02-09T04:10:09.278Z,59.93
2018-02-09T04:10:40.898Z,59.99
2018-02-09T04:11:12.557Z,60.17
2018-02-09T04:11:44.182Z,60.00
2018-02-09T04:12:15.810Z,59.83
2018-02-09T04:12:47.473Z,60.21
2018-02-09T04:13:19.137Z,59.99
2018-02-09T04:13:50.761Z,60.16
2018-02-09T04:14:22.477Z,60.02
2018-02-09T04:14:54.106Z,59.97
2018-02-09T04:15:25.725Z,60.07
2018-02-09T04:15:57.345Z,60.21
2018-02-09T04:16:28.970Z,60.16
2018-02-09T04:17:00.598Z,60.21
2018-02-09T04:17:32.217Z,60.03
2018-02-09T04:18:03.882Z,60.15
2018-02-09T04:18:35.510Z,60.29
2018-02-09T04:19:07.182Z,60.08
2018-02-09T04:19:38.805Z,60.17
2018-02-09T04:20:10.433Z,60.24
2018-02-09T04:20:42.077Z,60.20
2018-02-09T04:21:13.751Z,60.19
2018-02-09T04:21:45.397Z,60.21
2018-02-09T04:22:17.022Z,60.42
2018-02-09T04:22:48.650Z,60.59
2018-02-09T04:23:20.273Z,60.54
2018-02-09T04:23:51.898Z,60.33
2018-02-09T04:24:23.517Z,60.37
2018-02-09T04:24:55.147Z,60.64
2018-02-09T04:25:26.769Z,60.53
2018-02-09T04:25:58.485Z,60.73
2018-02-09T04:26:30.158Z,60.84
2018-02-09T04:27:01.782Z,60.75
2018-02-09T04:27:33.446Z,60.72
2018-02-09T04:28:05.069Z,60.98
2018-02-09T04:28:36.689Z,60.90
2018-02-09T04:29:08.318Z,60.87
2018-02-09T04:29:39.937Z,60.73
2018-02-09T04:30:11.562Z,60.92
2018-02-09T04:30:43.232Z,60.70
2018-02-09T04:31:14.854Z,60.81
2018-02-09T04:31:46.482Z,60.85
2018-02-09T04:32:18.109Z,60.70
2018-02-09T04:32:49.730Z,61.02
2018-02-09T04:33:21.431Z,60.89
2018-02-09T04:33:53.059Z,60.90
2018-02-09T04:34:24.685Z,60.51
2018-02-09T04:34:56.311Z,60.51
2018-02-09T04:35:27.933Z,60.49
2018-02-09T04:35:59.553Z,60.58
2018-02-09T04:36:31.189Z,60.27
2018-02-09T04:37:02.818Z,60.32
2018-02-09T04:37:34.449Z,60.31
2018-02-09T04:38:06.070Z,60.20
2018-02-09T04:38:37.745Z,60.19
2018-02-09T04:39:09.370Z,60.22
2018-02-09T04:39:40.990Z,60.27
2018-02-09T04:40:12.678Z,60.01
2018-02-09T04:40:44.301Z,60.05
2018-02-09T04:41:15.925Z,59.91
2018-02-09T04:41:47.545Z,59.81
2018-02-09T04:42:19.170Z,59.94
2018-02-09T04:42:50.794Z,59.78
2018-02-09T04:43:22.417Z,59.77
2018-02-09T04:43:54.090Z,59.75
2018-02-09T04:44:25.709Z,59.76
2018-02-09T04:44:57.337Z,59.74
2018-02-09T04:45:28.957Z,59.60
2018-02-09T04:46:00.582Z,59.88
2018-02-09T04:46:32.210Z,60.23
2018-02-09T04:47:03.893Z,60.36
2018-02-09T04:47:35.518Z,60.21
2018-02-09T04:48:07.201Z,59.92
2018-02-09T04:48:38.830Z,59.92
2018-02-09T04:49:10.453Z,59.78
2018-02-09T04:49:42.078Z,59.82
2018-02-09T04:50:13.707Z,59.61
2018-02-09T04:50:45.330Z,59.66
2018-02-09T04:51:16.948Z,59.82
2018-02-09T04:51:48.569Z,59.57
2018-02-09T04:52:20.194Z,59.59
2018-02-09T04:52:51.813Z,59.61
2018-02-09T04:53:23.481Z,59.63
2018-02-09T04:53:55.101Z,59.56
2018-02-09T04:54:26.764Z,59.56
2018-02-09T04:54:58.390Z,59.56
2018-02-09T04:55:30.009Z,59.48
2018-02-09T04:56:01.642Z,59.41
2018-02-09T04:56:33.306Z,59.41
2018-02-09T04:57:04.930Z,59.67
2018-02-09T04:57:36.558Z,59.61
2018-02-09T04:58:08.186Z,59.44
2018-02-09T04:58:39.850Z,59.57
2018-02-09T04:59:11.472Z,59.34
2018-02-09T04:59:43.133Z,59.29
2018-02-09T05:00:14.753Z,59.39
2018-02-09T05:00:46.382Z,59.37
2018-02-09T05:01:18.012Z,59.36
2018-02-09T05:01:49.633Z,59.48
2018-02-09T05:02:21.254Z,59.37
2018-02-09T05:02:52.930Z,59.52
2018-02-09T05:03:24.562Z,59.42
2018-02-09T05:03:56.186Z,59.64
2018-02-09T05:04:27.814Z,59.59
2018-02-09T05:04:59.437Z,59.57
2018-02-09T05:05:31.060Z,59.65
2018-02-09T05:06:02.685Z,59.69
2018-02-09T05:06:34.314Z,59.59
2018-02-09T05:07:05.942Z,59.68
2018-02-09T05:07:37.565Z,59.52
2018-02-09T05:08:09.238Z,59.58
2018-02-09T05:08:40.861Z,59.58
2018-02-09T05:09:12.485Z,59.78
2018-02-09T05:09:44.113Z,59.84
2018-02-09T05:10:15.742Z,59.75
2018-02-09T05:10:47.373Z,59.95
2018-02-09T05:11:19.001Z,60.24
2018-02-09T05:11:50.625Z,60.09
2018-02-09T05:12:22.249Z,60.62
2018-02-09T05:12:53.878Z,60.74
2018-02-09T05:13:25.550Z,60.51
2018-02-09T05:13:57.178Z,60.92
2018-02-09T05:14:28.801Z,60.94
2018-02-09T05:15:00.421Z,60.97
2018-02-09T05:15:32.051Z,60.97
2018-02-09T05:16:03.681Z,61.07
2018-02-09T05:16:35.305Z,60.92
2018-02-09T05:17:06.930Z,60.97
2018-02-09T05:17:38.563Z,61.19
2018-02-09T05:18:10.182Z,61.30
2018-02-09T05:18:41.848Z,61.02
2018-02-09T05:19:13.518Z,61.36
2018-02-09T05:19:45.150Z,61.17
2018-02-09T05:20:16.773Z,61.46
2018-02-09T05:20:48.392Z,61.23
2018-02-09T05:21:20.066Z,61.14
2018-02-09T05:21:51.674Z,60.98
2018-02-09T05:22:23.294Z,60.87
2018-02-09T05:22:54.929Z,60.76
2018-02-09T05:23:26.561Z,60.71
2018-02-09T05:23:58.182Z,60.76
2018-02-09T05:24:29.806Z,60.86
2018-02-09T05:25:01.425Z,60.90
2018-02-09T05:25:33.050Z,60.75
2018-02-09T05:26:04.718Z,60.77
2018-02-09T05:26:36.346Z,60.60
2018-02-09T05:27:07.973Z,60.94
2018-02-09T05:27:39.602Z,61.01
2018-02-09T05:28:11.222Z,61.13
2018-02-09T05:28:42.849Z,61.13
2018-02-09T05:29:14.482Z,61.15
2018-02-09T05:29:46.110Z,61.38
2018-02-09T05:30:17.828Z,61.27
2018-02-09T05:30:49.449Z,61.02
2018-02-09T05:31:21.069Z,60.72
2018-02-09T05:31:52.745Z,60.89
2018-02-09T05:32:24.374Z,60.85
2018-02-09T05:32:55.998Z,60.66
2018-02-09T05:33:27.626Z,60.86
2018-02-09T05:33:59.253Z,60.95
2018-02-09T05:34:30.874Z,60.95
2018-02-09T05:35:02.492Z,61.11
2018-02-09T05:35:34.113Z,60.85
2018-02-09T05:36:05.735Z,61.07
2018-02-09T05:36:37.361Z,61.35
2018-02-09T05:37:09.033Z,61.05
2018-02-09T05:37:40.653Z,61.06
2018-02-09T05:38:12.278Z,61.39
2018-02-09T05:38:43.898Z,61.41
2018-02-09T05:39:15.517Z,61.30
2018-02-09T05:39:47.138Z,61.35
2018-02-09T05:40:18.757Z,61.54
2018-02-09T05:40:50.386Z,61.58
2018-02-09T05:41:22.010Z,61.34
2018-02-09T05:41:53.637Z,61.38
2018-02-09T05:42:25.306Z,61.41
2018-02-09T05:42:56.933Z,61.44
2018-02-09T05:43:28.557Z,61.36
2018-02-09T05:44:00.226Z,61.50
2018-02-09T05:44:31.850Z,61.27
2018-02-09T05:45:03.469Z,61.45
2018-02-09T05:45:35.097Z,61.27
2018-02-09T05:46:06.719Z,61.72
2018-02-09T05:46:38.350Z,61.39
2018-02-09T05:47:09.972Z,61.29
2018-02-09T05:47:41.598Z,61.52
2018-02-09T05:48:13.274Z,61.26
2018-02-09T05:48:44.893Z,61.42
2018-02-09T05:49:16.518Z,61.44
2018-02-09T05:49:48.145Z,61.60
2018-02-09T05:50:19.773Z,61.46
2018-02-09T05:50:51.400Z,61.40
2018-02-09T05:51:23.021Z,61.24
2018-02-09T05:51:54.641Z,60.92
2018-02-09T05:52:26.269Z,60.79
2018-02-09T05:52:57.909Z,61.00
2018-02-09T05:53:29.578Z,60.99
2018-02-09T05:54:01.206Z,61.25
2018-02-09T05:54:32.829Z,60.95
2018-02-09T05:55:04.451Z,61.08
2018-02-09T05:55:36.124Z,60.98
2018-02-09T05:56:07.750Z,60.99
2018-02-09T05:56:39.374Z,61.07
2018-02-09T05:57:10.993Z,60.91
2018-02-09T05:57:42.614Z,60.77
2018-02-09T05:58:14.236Z,60.84
2018-02-09T05:58:45.858Z,60.86
2018-02-09T05:59:17.482Z,60.78
2018-02-09T05:59:49.101Z,60.89
2018-02-09T06:00:20.725Z,60.81
2018-02-09T06:00:52.345Z,60.76
2018-02-09T06:01:23.967Z,60.49
2018-02-09T06:01:55.596Z,60.42
2018-02-09T06:02:27.226Z,60.31
2018-02-09T06:02:59.872Z,60.30
2018-02-09T06:03:31.496Z,60.53
2018-02-09T06:04:03.113Z,60.51
2018-02-09T06:04:34.737Z,60.82
2018-02-09T06:05:06.357Z,60.88
2018-02-09T06:05:38.029Z,60.73
2018-02-09T06:06:09.650Z,60.84
2018-02-09T06:06:41.273Z,60.61
2018-02-09T06:07:12.898Z,60.75
2018-02-09T06:07:44.526Z,60.64
2018-02-09T06:08:16.154Z,60.87
2018-02-09T06:08:47.791Z,60.47
2018-02-09T06:09:19.413Z,60.63
2018-02-09T06:09:51.033Z,60.47
2018-02-09T06:10:22.653Z,60.67
2018-02-09T06:10:54.321Z,60.49
2018-02-09T06:11:25.941Z,60.46
2018-02-09T06:11:57.561Z,60.24
2018-02-09T06:12:29.231Z,60.22
2018-02-09T06:13:00.866Z,60.21
2018-02-09T06:13:32.485Z,59.99
2018-02-09T06:14:04.110Z,60.07
2018-02-09T06:14:35.733Z,59.89
2018-02-09T06:15:07.358Z,59.92
2018-02-09T06:15:38.978Z,59.93
2018-02-09T06:16:10.601Z,59.99
2018-02-09T06:16:42.261Z,59.74
2018-02-09T06:17:13.881Z,59.60
2018-02-09T06:17:45.505Z,59.54
2018-02-09T06:18:17.130Z,59.57
2018-02-09T06:18:48.753Z,59.72
2018-02-09T06:19:20.381Z,59.58
2018-02-09T06:19:52.045Z,59.41
2018-02-09T06:20:23.674Z,59.42
2018-02-09T06:20:55.302Z,59.23
2018-02-09T06:21:26.925Z,59.38
2018-02-09T06:21:58.546Z,59.23
2018-02-09T06:22:30.189Z,59.19
2018-02-09T06:23:01.814Z,59.19
2018-02-09T06:23:33.446Z,59.26
2018-02-09T06:24:05.114Z,59.17
2018-02-09T06:24:36.734Z,59.25
2018-02-09T06:25:08.357Z,59.25
2018-02-09T06:25:39.978Z,59.28
2018-02-09T06:26:11.602Z,59.34
2018-02-09T06:26:43.226Z,59.14
2018-02-09T06:27:14.854Z,59.21
2018-02-09T06:27:46.473Z,59.25
2018-02-09T06:28:18.093Z,59.25
2018-02-09T06:28:49.722Z,59.24
2018-02-09T06:29:21.350Z,59.42
2018-02-09T06:29:52.979Z,59.33
2018-02-09T06:30:24.603Z,59.44
2018-02-09T06:30:56.223Z,59.41
2018-02-09T06:31:27.841Z,59.49
2018-02-09T06:31:59.469Z,59.38
2018-02-09T06:32:31.090Z,59.30
2018-02-09T06:33:02.756Z,59.41
2018-02-09T06:33:34.434Z,59.35
2018-02-09T06:34:06.057Z,59.23
2018-02-09T06:34:37.681Z,59.25
2018-02-09T06:35:09.309Z,59.31
2018-02-09T06:35:40.930Z,59.34
2018-02-09T06:36:12.554Z,59.35
2018-02-09T06:36:44.177Z,59.40
2018-02-09T06:37:15.806Z,59.26
2018-02-09T06:37:47.434Z,59.34
2018-02-09T06:38:19.066Z,59.35
2018-02-09T06:38:50.736Z,59.26
2018-02-09T06:39:22.365Z,59.29
2018-02-09T06:39:53.985Z,59.41
2018-02-09T06:40:25.614Z,59.41
2018-02-09T06:40:57.245Z,59.24
2018-02-09T06:41:28.870Z,59.42
2018-02-09T06:42:00.497Z,59.19
2018-02-09T06:42:32.125Z,59.28
2018-02-09T06:43:03.755Z,59.17
2018-02-09T06:43:48.641Z,59.42
2018-02-09T06:44:20.277Z,59.45
2018-02-09T06:44:51.901Z,59.45
2018-02-09T06:45:23.525Z,59.48
2018-02-09T06:45:55.150Z,59.53
2018-02-09T06:46:26.769Z,59.29
2018-02-09T06:46:58.402Z,59.74
2018-02-09T06:47:30.182Z,59.62